Bunker Hill Village, Texas
Current Conditions -  °F | °C
As of 2:15 PM on Monday 24 Nov 2014 (Local Time) from KMCJ Reporting Station
Scattered Clouds Scattered Clouds  
Wind Chill: 64°   Ceiling: Unl
Heat Index: 64°   Visibility: 10mi
Dew Point: 28°   Wind: 13mph
Humidity: 26%   Direction: 320°NW
Pressure: 29.98"   Gusts: 17mph
Location:  29.7698°N, 95.5164°W
Report Text: KMCJ 242015Z AUTO 32011G15KT 030V020 10SM SCT120 18/M02 A2998 RMK AO1
Loading
Personal Weather Stations






























Interactive Weather Map New forecast layout! Learn more

10-Day Weather Forecast

Advertisements
Track Severe Weather on mobile